Time;durP1;ratioP1;P1;durP2;ratioP2;P2;SDS_P1;SDS_P2;PMS_P1;PMS_P2;Temp;Humidity;BMP_temperature;BMP_pressure;BME280_temperature;BME280_humidity;BME280_pressure;Samples;Min_cycle;Max_cycle;Signal;HPM_P1;HPM_P2
2022/06/24 00:00:16;;;;;;;2.00;1.60;;;26.30;53.20;;;;;;4919273;29;20047;-75
2022/06/24 00:02:48;;;;;;;2.38;1.58;;;26.30;53.90;;;;;;4918004;29;20095;-75
2022/06/24 00:05:14;;;;;;;2.65;1.52;;;26.30;53.30;;;;;;4901851;29;20104;-78
2022/06/24 00:07:50;;;;;;;2.65;1.42;;;26.30;53.30;;;;;;4917722;29;20068;-76
2022/06/24 00:10:18;;;;;;;2.25;1.52;;;26.20;53.30;;;;;;4901787;29;20032;-77
2022/06/24 00:12:45;;;;;;;2.60;1.60;;;26.20;53.30;;;;;;4918386;29;20495;-76
2022/06/24 00:15:11;;;;;;;5.72;1.85;;;26.10;53.20;;;;;;4885879;29;20119;-77
2022/06/24 00:17:37;;;;;;;3.15;1.70;;;26.10;53.30;;;;;;4902403;29;20152;-76
2022/06/24 00:20:09;;;;;;;2.03;1.50;;;26.10;53.30;;;;;;4886048;29;20067;-76
2022/06/24 00:22:44;;;;;;;3.05;1.70;;;26.00;53.30;;;;;;4901896;29;20035;-76
2022/06/24 00:25:21;;;;;;;2.78;1.75;;;26.00;53.30;;;;;;4901495;29;20046;-76
2022/06/24 00:27:59;;;;;;;2.35;1.50;;;26.00;53.40;;;;;;4917880;29;20355;-79
2022/06/24 00:30:25;;;;;;;1.83;1.67;;;26.00;53.50;;;;;;4916594;29;20036;-75
2022/06/24 00:32:51;;;;;;;1.60;1.50;;;25.90;53.50;;;;;;4871231;29;20130;-77
2022/06/24 00:35:18;;;;;;;2.55;1.60;;;25.90;53.60;;;;;;4901472;29;20032;-77
2022/06/24 00:37:45;;;;;;;2.70;1.73;;;25.90;53.70;;;;;;4917285;29;20461;-76
2022/06/24 00:40:11;;;;;;;2.05;1.65;;;25.90;53.70;;;;;;4916954;29;20036;-76
2022/06/24 00:42:41;;;;;;;2.47;1.50;;;25.80;53.70;;;;;;4901310;29;20024;-77
2022/06/24 00:45:14;;;;;;;2.53;1.70;;;25.80;53.70;;;;;;4916707;29;20028;-76
2022/06/24 00:47:41;;;;;;;2.10;1.70;;;25.80;53.80;;;;;;4917236;29;20040;-76
2022/06/24 00:50:21;;;;;;;1.70;1.60;;;25.80;53.80;;;;;;4901047;29;20528;-76
2022/06/24 00:52:47;;;;;;;2.25;1.77;;;25.70;53.90;;;;;;4885520;29;20047;-77
2022/06/24 00:55:18;;;;;;;1.92;1.70;;;25.70;53.80;;;;;;4885505;29;20060;-77
2022/06/24 00:57:44;;;;;;;1.90;1.67;;;25.70;53.90;;;;;;4885371;29;20028;-77
2022/06/24 01:00:12;;;;;;;1.75;1.50;;;25.70;53.90;;;;;;4917627;29;20040;-76
2022/06/24 01:02:40;;;;;;;3.00;1.83;;;25.70;53.90;;;;;;4885278;29;20473;-76
2022/06/24 01:05:08;;;;;;;2.05;1.67;;;25.60;53.90;;;;;;4917997;29;20115;-77
2022/06/24 01:07:38;;;;;;;2.67;1.80;;;25.60;54.00;;;;;;4900639;29;20036;-76
2022/06/24 01:10:06;;;;;;;2.15;1.70;;;25.60;54.00;;;;;;4917397;29;20039;-78
2022/06/24 01:12:33;;;;;;;1.70;1.60;;;25.60;54.00;;;;;;4885070;29;20032;-77
2022/06/24 01:14:59;;;;;;;3.60;1.83;;;25.50;53.90;;;;;;4885009;29;20032;-75
2022/06/24 01:17:25;;;;;;;2.30;1.83;;;25.50;54.00;;;;;;4885260;29;20145;-76
2022/06/24 01:19:50;;;;;;;2.00;1.75;;;25.50;54.10;;;;;;4916517;29;20123;-77
2022/06/24 01:22:24;;;;;;;2.50;1.85;;;25.40;54.00;;;;;;4884918;29;20505;-76
2022/06/24 01:24:51;;;;;;;2.25;1.85;;;25.50;54.20;;;;;;4900365;29;20032;-76
2022/06/24 01:27:17;;;;;;;2.40;1.83;;;25.40;54.10;;;;;;4900429;29;20515;-75
2022/06/24 01:29:43;;;;;;;3.97;2.13;;;25.40;54.20;;;;;;4900966;29;20047;-76
2022/06/24 01:32:10;;;;;;;2.60;1.90;;;25.40;54.20;;;;;;4916040;29;20043;-76
2022/06/24 01:34:36;;;;;;;3.25;1.88;;;25.30;54.20;;;;;;4916395;29;20036;-76
2022/06/24 01:37:03;;;;;;;4.35;2.10;;;25.30;54.20;;;;;;4901068;29;20377;-76
2022/06/24 01:39:29;;;;;;;3.05;2.13;;;25.30;54.30;;;;;;4900356;29;20036;-76
2022/06/24 01:41:55;;;;;;;2.80;2.20;;;25.30;54.30;;;;;;4884810;29;20032;-75
2022/06/24 01:44:24;;;;;;;2.58;1.92;;;25.30;54.40;;;;;;4899988;29;20028;-76
2022/06/24 01:46:50;;;;;;;3.28;2.20;;;25.20;54.40;;;;;;4885289;29;20024;-77
2022/06/24 01:49:16;;;;;;;3.53;2.30;;;25.30;54.50;;;;;;4884665;29;20088;-78
2022/06/24 01:51:46;;;;;;;3.10;2.33;;;25.20;54.50;;;;;;4900426;29;20414;-78
2022/06/24 01:54:12;;;;;;;3.22;2.10;;;25.20;54.60;;;;;;4899892;29;20039;-75
2022/06/24 01:56:38;;;;;;;2.92;2.35;;;25.20;54.60;;;;;;4900110;29;20124;-77
2022/06/24 01:59:04;;;;;;;2.45;1.95;;;25.20;54.60;;;;;;4900251;29;20115;-76
2022/06/24 02:01:30;;;;;;;3.15;2.40;;;25.10;54.60;;;;;;4916839;29;20069;-78
2022/06/24 02:03:56;;;;;;;3.28;2.00;;;25.10;54.60;;;;;;4899667;29;20028;-77
2022/06/24 02:06:22;;;;;;;3.38;1.98;;;25.10;54.70;;;;;;4884486;29;20031;-77
2022/06/24 02:08:48;;;;;;;2.20;2.00;;;25.10;54.70;;;;;;4900341;29;20043;-76
2022/06/24 02:13:59;;;;;;;2.70;1.90;;;25.10;54.80;;;;;;4916344;29;20433;-77
2022/06/24 02:16:26;;;;;;;2.78;2.00;;;25.00;54.80;;;;;;4899477;29;20490;-75
2022/06/24 02:18:54;;;;;;;2.45;1.92;;;25.00;54.90;;;;;;4916340;29;20040;-76
2022/06/24 02:21:23;;;;;;;2.53;1.73;;;25.00;54.90;;;;;;4884708;29;20100;-77
2022/06/24 02:23:49;;;;;;;3.20;2.10;;;25.00;55.00;;;;;;4884539;29;20024;-76
2022/06/24 02:26:15;;;;;;;3.15;2.10;;;25.00;55.60;;;;;;4884703;29;20043;-77
2022/06/24 02:28:41;;;;;;;3.65;2.30;;;24.90;54.90;;;;;;4899470;29;20103;-76
2022/06/24 02:31:06;;;;;;;2.95;2.03;;;24.90;55.00;;;;;;4899656;29;20076;-74
2022/06/24 02:33:32;;;;;;;2.40;1.90;;;24.90;55.00;;;;;;4884199;29;20039;-76
2022/06/24 02:35:58;;;;;;;3.47;1.80;;;24.80;55.00;;;;;;4916926;29;20473;-75
2022/06/24 02:38:24;;;;;;;3.92;2.17;;;24.80;55.10;;;;;;4900308;29;20032;-75
2022/06/24 02:40:53;;;;;;;2.00;1.60;;;24.80;55.10;;;;;;4899412;29;20104;-76
2022/06/24 02:43:24;;;;;;;2.45;1.90;;;24.80;55.20;;;;;;4884497;29;20028;-75
2022/06/24 02:45:58;;;;;;;3.20;2.10;;;24.80;55.20;;;;;;4899748;29;20500;-75
2022/06/24 02:48:23;;;;;;;2.40;1.90;;;24.80;55.30;;;;;;4899972;29;20060;-74
2022/06/24 02:50:55;;;;;;;2.35;1.95;;;24.80;55.20;;;;;;4914859;29;20066;-75
2022/06/24 02:53:22;;;;;;;2.15;1.52;;;24.80;55.30;;;;;;4918765;29;20040;-76
2022/06/24 02:55:49;;;;;;;2.60;1.52;;;24.70;55.30;;;;;;4903360;29;20089;-75
2022/06/24 02:58:16;;;;;;;1.67;1.50;;;24.70;55.40;;;;;;4918871;29;20060;-76
2022/06/24 03:00:42;;;;;;;3.88;1.70;;;24.60;55.40;;;;;;4918821;29;20083;-75
2022/06/24 03:03:09;;;;;;;1.90;1.52;;;24.60;56.10;;;;;;4902988;29;20058;-75
2022/06/24 03:05:35;;;;;;;1.98;1.45;;;24.60;55.50;;;;;;4902861;29;20033;-75
2022/06/24 03:08:01;;;;;;;2.15;1.42;;;24.60;55.50;;;;;;4902885;29;20039;-73
2022/06/24 03:10:27;;;;;;;2.10;1.40;;;24.60;55.60;;;;;;4919531;29;20039;-74
2022/06/24 03:12:52;;;;;;;2.40;1.38;;;24.60;55.60;;;;;;4903108;29;20051;-77
2022/06/24 03:15:19;;;;;;;2.05;1.50;;;24.50;55.60;;;;;;4902398;29;20056;-74
2022/06/24 03:17:45;;;;;;;2.33;1.50;;;24.50;55.60;;;;;;4903245;29;20040;-75
2022/06/24 03:20:11;;;;;;;1.75;1.40;;;24.50;56.30;;;;;;4919360;29;20040;-75
2022/06/24 03:22:37;;;;;;;1.85;1.35;;;24.50;55.70;;;;;;4887685;29;20060;-74
2022/06/24 03:25:04;;;;;;;1.88;1.38;;;24.50;55.70;;;;;;4902353;29;20061;-74
2022/06/24 03:27:30;;;;;;;1.90;1.50;;;24.40;55.70;;;;;;4902333;29;20107;-75
2022/06/24 03:29:55;;;;;;;1.77;1.50;;;24.40;55.80;;;;;;4902779;29;20119;-74
2022/06/24 03:32:21;;;;;;;2.13;1.17;;;24.40;55.80;;;;;;4902554;29;20062;-74
2022/06/24 03:34:47;;;;;;;1.88;1.30;;;24.40;55.80;;;;;;4918136;29;20028;-74
2022/06/24 03:37:13;;;;;;;1.95;1.25;;;24.30;55.80;;;;;;4918977;29;20101;-75
2022/06/24 03:39:39;;;;;;;2.03;1.30;;;24.40;55.90;;;;;;4919281;29;20047;-76
2022/06/24 03:42:05;;;;;;;1.30;1.20;;;24.30;55.90;;;;;;4902909;29;20039;-75
2022/06/24 03:44:31;;;;;;;1.13;1.00;;;24.30;56.00;;;;;;4902209;29;20039;-76
2022/06/24 03:46:57;;;;;;;1.10;1.00;;;24.30;56.00;;;;;;4886625;29;20458;-75
2022/06/24 03:49:23;;;;;;;1.70;1.30;;;24.20;56.00;;;;;;4901842;29;20032;-76
2022/06/24 03:51:49;;;;;;;1.45;1.10;;;24.20;56.00;;;;;;4919181;29;20430;-75
2022/06/24 03:54:15;;;;;;;2.10;1.00;;;24.20;56.00;;;;;;4917805;29;20052;-76
2022/06/24 03:56:41;;;;;;;1.33;1.10;;;24.20;56.00;;;;;;4887025;29;20020;-75
2022/06/24 03:59:07;;;;;;;3.10;1.40;;;24.20;56.10;;;;;;4917894;29;20136;-75
2022/06/24 04:01:33;;;;;;;2.42;1.20;;;24.20;56.10;;;;;;4918696;29;20076;-75
2022/06/24 04:03:59;;;;;;;1.55;1.02;;;24.10;56.10;;;;;;4901970;29;20038;-75
2022/06/24 04:06:25;;;;;;;1.60;0.95;;;24.10;56.10;;;;;;4886352;29;20052;-76
2022/06/24 04:08:52;;;;;;;1.20;1.10;;;24.00;56.10;;;;;;4918542;29;20512;-75
2022/06/24 04:11:18;;;;;;;1.55;1.10;;;24.00;56.20;;;;;;4901717;29;20040;-75
2022/06/24 04:13:44;;;;;;;1.13;1.02;;;24.00;56.20;;;;;;4901636;29;20132;-76
2022/06/24 04:16:10;;;;;;;1.10;1.00;;;24.00;56.20;;;;;;4914092;29;20144;-76
2022/06/24 04:18:36;;;;;;;1.38;1.17;;;24.00;56.30;;;;;;4899425;29;20036;-75
2022/06/24 04:21:02;;;;;;;0.95;0.85;;;24.00;56.30;;;;;;4914319;29;20063;-76
2022/06/24 04:23:28;;;;;;;1.90;0.95;;;24.00;56.40;;;;;;4883466;29;20035;-75
2022/06/24 04:25:54;;;;;;;1.42;0.98;;;23.90;56.40;;;;;;4914075;29;20405;-76
2022/06/24 04:28:21;;;;;;;0.82;0.80;;;23.90;56.40;;;;;;4898491;29;20037;-76
2022/06/24 04:30:46;;;;;;;1.20;1.10;;;23.80;56.40;;;;;;4899705;29;20033;-75
2022/06/24 04:33:12;;;;;;;2.08;1.00;;;23.80;56.40;;;;;;4898295;29;20481;-76
2022/06/24 04:35:40;;;;;;;1.42;0.95;;;23.80;56.40;;;;;;4914146;29;20169;-75
2022/06/24 04:38:05;;;;;;;1.08;0.90;;;23.80;56.50;;;;;;4898972;29;20037;-75
2022/06/24 04:40:31;;;;;;;1.13;0.80;;;23.80;56.50;;;;;;4898875;29;20473;-76
2022/06/24 04:42:57;;;;;;;1.10;0.80;;;23.80;56.50;;;;;;4913817;29;20040;-77
2022/06/24 04:45:23;;;;;;;1.23;1.00;;;23.70;56.50;;;;;;4914735;29;20354;-78
2022/06/24 04:47:48;;;;;;;1.15;1.00;;;23.70;56.50;;;;;;4898990;29;20037;-77
2022/06/24 04:50:14;;;;;;;1.35;0.90;;;23.70;56.60;;;;;;4914072;29;20047;-77
2022/06/24 04:52:41;;;;;;;0.98;0.88;;;23.70;56.60;;;;;;4899046;29;20071;-78
2022/06/24 04:55:07;;;;;;;1.13;1.00;;;23.60;56.60;;;;;;4913823;29;20089;-78
2022/06/24 04:57:33;;;;;;;1.10;1.00;;;23.60;56.70;;;;;;4882379;29;20032;-77
2022/06/24 04:59:59;;;;;;;0.80;0.80;;;23.60;56.70;;;;;;4913670;29;20525;-79
2022/06/24 05:02:25;;;;;;;0.80;0.80;;;23.60;56.80;;;;;;4882372;29;20056;-78
2022/06/24 05:04:51;;;;;;;0.98;0.90;;;23.60;56.80;;;;;;4913269;29;20504;-78
2022/06/24 05:07:16;;;;;;;0.90;0.90;;;23.60;56.90;;;;;;4897737;29;20441;-77
2022/06/24 05:09:43;;;;;;;0.80;0.80;;;23.50;56.80;;;;;;4899094;29;20060;-76
2022/06/24 05:12:09;;;;;;;1.30;0.90;;;23.50;56.90;;;;;;4914113;29;20040;-75
2022/06/24 05:14:35;;;;;;;1.35;1.08;;;23.50;56.90;;;;;;4912611;29;20037;-75
2022/06/24 05:17:01;;;;;;;1.15;1.00;;;23.50;57.00;;;;;;4916542;29;20127;-77
2022/06/24 05:19:27;;;;;;;1.90;1.20;;;23.50;57.00;;;;;;4917010;29;20047;-75
2022/06/24 05:21:54;;;;;;;1.15;0.90;;;23.40;57.00;;;;;;4885137;29;20032;-75
2022/06/24 05:24:20;;;;;;;1.63;1.00;;;23.40;57.10;;;;;;4916390;29;20079;-76
2022/06/24 05:26:46;;;;;;;0.95;0.90;;;23.40;57.10;;;;;;4917253;29;20045;-76
2022/06/24 05:29:12;;;;;;;1.35;1.10;;;23.40;57.10;;;;;;4916084;29;20024;-76
2022/06/24 05:31:38;;;;;;;1.25;1.15;;;23.40;57.10;;;;;;4900101;29;20039;-76
2022/06/24 05:34:06;;;;;;;1.10;1.00;;;23.30;57.10;;;;;;4917542;29;20028;-77
2022/06/24 05:36:33;;;;;;;0.90;0.90;;;23.30;57.10;;;;;;4917464;29;20484;-77
2022/06/24 05:39:05;;;;;;;0.90;0.90;;;23.30;57.20;;;;;;4884446;29;20039;-76
2022/06/24 05:41:32;;;;;;;1.20;1.10;;;23.40;57.30;;;;;;4915888;29;20028;-76
2022/06/24 05:43:58;;;;;;;1.13;0.90;;;23.30;57.30;;;;;;4900164;29;20481;-76
2022/06/24 05:46:24;;;;;;;0.80;0.80;;;23.30;57.30;;;;;;4900028;29;20040;-77
2022/06/24 05:48:49;;;;;;;2.03;1.20;;;23.30;57.40;;;;;;4915322;29;20353;-77
2022/06/24 05:51:16;;;;;;;1.27;1.10;;;23.30;57.40;;;;;;4915872;29;20048;-77
2022/06/24 05:56:29;;;;;;;0.90;0.90;;;23.20;57.40;;;;;;4916732;29;20036;-76
2022/06/24 05:58:55;;;;;;;1.25;1.15;;;23.20;57.50;;;;;;4899920;29;20097;-77
2022/06/24 06:01:21;;;;;;;1.05;0.93;;;23.20;57.50;;;;;;4900050;29;20060;-77
2022/06/24 06:03:47;;;;;;;1.25;0.93;;;23.20;57.50;;;;;;4899910;29;20450;-77
2022/06/24 06:06:13;;;;;;;1.13;0.90;;;23.20;57.60;;;;;;4899857;29;20429;-77
2022/06/24 06:08:39;;;;;;;1.40;1.10;;;23.20;57.60;;;;;;4899851;29;20028;-77
2022/06/24 06:11:15;;;;;;;1.52;1.00;;;23.20;57.70;;;;;;4884537;29;20032;-78
2022/06/24 06:13:43;;;;;;;0.95;0.85;;;23.20;57.80;;;;;;4917468;29;20036;-77
2022/06/24 06:16:09;;;;;;;2.00;1.25;;;23.20;57.70;;;;;;4915225;29;20044;-78
2022/06/24 06:18:35;;;;;;;1.70;1.00;;;23.20;57.70;;;;;;4915670;29;20028;-75
2022/06/24 06:21:05;;;;;;;1.60;1.30;;;23.10;57.70;;;;;;4899151;29;20107;-75
2022/06/24 06:23:32;;;;;;;1.20;1.10;;;23.10;57.70;;;;;;4899249;29;20029;-75
2022/06/24 06:25:59;;;;;;;0.88;0.85;;;23.20;57.80;;;;;;4915617;29;20032;-75
2022/06/24 06:28:25;;;;;;;1.42;1.08;;;23.10;57.80;;;;;;4916995;29;20032;-74
2022/06/24 06:30:51;;;;;;;1.23;1.10;;;23.10;57.80;;;;;;4917609;29;20063;-75
2022/06/24 06:33:17;;;;;;;1.15;1.00;;;23.10;57.80;;;;;;4919180;29;20032;-75
2022/06/24 06:35:43;;;;;;;1.02;1.00;;;23.10;57.90;;;;;;4901897;29;20176;-75
2022/06/24 06:38:09;;;;;;;1.10;0.95;;;23.10;58.50;;;;;;4902175;29;20517;-75
2022/06/24 06:40:36;;;;;;;1.17;1.00;;;23.10;57.90;;;;;;4902064;29;20036;-74
2022/06/24 06:43:02;;;;;;;1.95;1.30;;;23.10;57.90;;;;;;4918793;29;20162;-75
2022/06/24 06:45:28;;;;;;;1.10;1.00;;;23.10;57.90;;;;;;4886468;29;20043;-75
2022/06/24 06:47:54;;;;;;;1.27;1.10;;;23.10;57.90;;;;;;4901815;29;20474;-75
2022/06/24 06:50:20;;;;;;;1.48;1.20;;;23.00;57.90;;;;;;4886052;29;20040;-75
2022/06/24 06:52:46;;;;;;;1.20;1.10;;;23.00;57.90;;;;;;4902727;29;20039;-75
2022/06/24 06:55:11;;;;;;;1.60;1.30;;;23.00;58.00;;;;;;4901851;29;20028;-76
2022/06/24 06:57:37;;;;;;;2.22;1.10;;;23.00;58.00;;;;;;4901572;29;20036;-75
2022/06/24 07:00:05;;;;;;;2.08;1.10;;;23.00;58.00;;;;;;4886109;29;20119;-76
2022/06/24 07:02:31;;;;;;;1.85;1.10;;;23.00;58.10;;;;;;4886297;29;20417;-75
2022/06/24 07:04:57;;;;;;;1.00;0.93;;;23.00;58.10;;;;;;4886093;29;20084;-76
2022/06/24 07:07:22;;;;;;;1.50;1.23;;;23.00;58.10;;;;;;4901816;29;20043;-76
2022/06/24 07:09:48;;;;;;;1.08;0.90;;;23.00;58.10;;;;;;4918591;29;20048;-75
2022/06/24 07:12:14;;;;;;;0.98;0.98;;;23.00;58.10;;;;;;4885805;29;20040;-77
2022/06/24 07:14:41;;;;;;;1.20;1.10;;;23.00;58.10;;;;;;4901546;29;20036;-74
2022/06/24 07:17:08;;;;;;;1.45;1.15;;;23.00;58.20;;;;;;4860602;29;1251847;-75
2022/06/24 07:19:33;;;;;;;1.15;0.95;;;23.00;58.20;;;;;;4902647;29;20346;-75
2022/06/24 07:21:59;;;;;;;1.17;1.00;;;23.00;58.30;;;;;;4903201;29;20047;-78
2022/06/24 07:24:25;;;;;;;2.80;1.23;;;22.90;58.20;;;;;;4902606;29;20060;-79
2022/06/24 07:26:51;;;;;;;2.05;1.27;;;22.90;58.30;;;;;;4919749;29;20480;-75
2022/06/24 07:29:17;;;;;;;2.25;1.20;;;22.90;58.30;;;;;;4919151;29;20032;-75
2022/06/24 07:31:43;;;;;;;0.82;0.82;;;22.90;58.30;;;;;;4887082;29;20046;-76
2022/06/24 07:34:09;;;;;;;2.15;1.08;;;22.90;58.30;;;;;;4886691;29;20060;-75
2022/06/24 07:36:34;;;;;;;1.20;1.10;;;22.90;58.40;;;;;;4871709;29;20131;-75
2022/06/24 07:39:01;;;;;;;2.45;1.35;;;22.90;58.40;;;;;;4919431;29;20051;-76
2022/06/24 07:41:27;;;;;;;1.45;1.20;;;22.90;58.40;;;;;;4902520;29;20047;-74
2022/06/24 07:43:53;;;;;;;1.17;1.08;;;22.90;58.40;;;;;;4918068;29;20036;-75
2022/06/24 07:46:18;;;;;;;1.40;1.17;;;22.90;58.40;;;;;;4919213;29;20032;-75
2022/06/24 07:48:44;;;;;;;1.02;0.98;;;22.90;58.40;;;;;;4886648;29;20032;-76
2022/06/24 07:51:15;;;;;;;1.17;1.08;;;22.90;58.50;;;;;;4918691;29;20051;-75
2022/06/24 07:53:42;;;;;;;1.67;1.00;;;22.90;58.50;;;;;;4902348;29;20146;-78
2022/06/24 07:58:52;;;;;;;1.50;1.35;;;22.90;58.60;;;;;;4918378;29;20045;-76
2022/06/24 08:01:18;;;;;;;1.38;1.27;;;22.90;58.50;;;;;;4886489;29;20115;-75
2022/06/24 08:03:44;;;;;;;1.45;1.35;;;22.90;58.60;;;;;;4919263;29;20107;-75
2022/06/24 08:06:10;;;;;;;1.92;1.33;;;22.90;58.70;;;;;;4886353;29;20036;-74
2022/06/24 08:08:36;;;;;;;1.75;1.42;;;22.90;58.70;;;;;;4918876;29;20041;-75
2022/06/24 08:11:02;;;;;;;1.75;1.30;;;22.90;58.70;;;;;;4901539;29;20051;-74
2022/06/24 08:13:30;;;;;;;1.45;1.33;;;22.90;58.70;;;;;;4918403;29;20067;-74
2022/06/24 08:15:56;;;;;;;1.80;1.30;;;22.90;58.80;;;;;;4898322;29;20049;-74
2022/06/24 08:18:22;;;;;;;1.38;1.27;;;22.90;58.80;;;;;;4898439;29;20036;-73
2022/06/24 08:20:49;;;;;;;1.30;1.20;;;22.90;58.80;;;;;;4898489;29;20481;-74
2022/06/24 08:23:15;;;;;;;1.60;1.40;;;22.90;58.80;;;;;;4900171;29;20028;-75
2022/06/24 08:25:41;;;;;;;1.83;1.48;;;22.90;58.90;;;;;;4899394;29;20029;-75
2022/06/24 08:28:06;;;;;;;1.60;1.40;;;22.90;58.90;;;;;;4882931;29;20124;-75
2022/06/24 08:30:33;;;;;;;1.48;1.20;;;22.90;58.90;;;;;;4899501;29;20130;-74
2022/06/24 08:32:59;;;;;;;2.10;1.50;;;22.90;59.00;;;;;;4898637;29;20049;-74
2022/06/24 08:35:25;;;;;;;1.50;1.33;;;22.90;59.00;;;;;;4913717;29;20378;-74
2022/06/24 08:37:50;;;;;;;1.55;1.30;;;22.90;59.00;;;;;;4882769;29;20155;-74
2022/06/24 08:40:18;;;;;;;2.47;1.70;;;22.90;59.00;;;;;;4898553;29;20040;-75
2022/06/24 08:42:44;;;;;;;1.52;1.40;;;22.90;59.00;;;;;;4882584;29;20040;-77
2022/06/24 08:45:14;;;;;;;1.30;1.20;;;22.90;59.10;;;;;;4898379;29;20496;-75
2022/06/24 08:47:40;;;;;;;1.35;1.25;;;22.90;59.10;;;;;;4913917;29;20472;-75
2022/06/24 08:50:07;;;;;;;1.50;1.33;;;22.90;59.10;;;;;;4912775;29;20024;-75
2022/06/24 08:52:33;;;;;;;1.77;1.40;;;22.90;59.10;;;;;;4882287;29;20100;-75
2022/06/24 08:55:01;;;;;;;2.25;1.48;;;23.00;59.20;;;;;;4897881;29;20060;-77
2022/06/24 08:57:27;;;;;;;2.63;1.67;;;23.00;59.20;;;;;;4898356;29;20035;-78
2022/06/24 08:59:53;;;;;;;2.15;1.50;;;22.90;59.20;;;;;;4897931;29;20040;-75
2022/06/24 09:02:19;;;;;;;1.95;1.50;;;23.00;59.20;;;;;;4913307;29;20070;-76
2022/06/24 09:04:45;;;;;;;1.92;1.33;;;23.00;59.20;;;;;;4913411;29;20036;-75
2022/06/24 09:07:24;;;;;;;1.95;1.50;;;23.00;59.20;;;;;;4897808;29;20123;-78
2022/06/24 09:09:58;;;;;;;1.83;1.55;;;23.00;59.30;;;;;;4882825;29;20055;-76
2022/06/24 09:12:24;;;;;;;1.65;1.38;;;23.10;59.30;;;;;;4882011;29;20079;-75
2022/06/24 09:14:49;;;;;;;1.63;1.40;;;23.10;59.20;;;;;;4898536;29;20124;-76
2022/06/24 09:17:15;;;;;;;1.35;1.25;;;23.10;59.20;;;;;;4897849;29;20060;-75
2022/06/24 09:19:41;;;;;;;1.90;1.50;;;23.10;59.30;;;;;;4884704;29;20032;-75
2022/06/24 09:22:07;;;;;;;1.33;1.23;;;23.10;59.30;;;;;;4917677;29;20047;-75
2022/06/24 09:24:47;;;;;;;1.45;1.27;;;23.20;59.40;;;;;;4917141;29;20024;-74
2022/06/24 09:27:13;;;;;;;1.52;1.42;;;23.20;59.50;;;;;;4917155;29;20036;-74
2022/06/24 09:29:49;;;;;;;1.77;1.30;;;23.20;59.30;;;;;;4917500;29;20028;-74
2022/06/24 09:32:15;;;;;;;1.58;1.33;;;23.20;59.40;;;;;;4916986;29;20122;-75
2022/06/24 09:35:08;;;;;;;2.15;1.65;;;23.20;59.30;;;;;;4900073;29;20107;-75
2022/06/24 09:37:40;;;;;;;1.88;1.52;;;23.20;59.40;;;;;;4916225;29;20064;-75
2022/06/24 09:40:15;;;;;;;1.90;1.48;;;23.30;59.30;;;;;;4917506;29;20039;-75
2022/06/24 09:42:41;;;;;;;1.48;1.38;;;23.30;59.40;;;;;;4916230;29;20088;-75
2022/06/24 09:45:07;;;;;;;1.50;1.40;;;23.30;59.30;;;;;;4869330;29;20025;-76
2022/06/24 09:47:39;;;;;;;1.60;1.45;;;23.30;59.30;;;;;;4916731;29;20398;-75
2022/06/24 09:50:06;;;;;;;1.90;1.50;;;23.30;59.30;;;;;;4917011;29;20039;-77
2022/06/24 09:52:32;;;;;;;2.00;1.65;;;23.40;59.30;;;;;;4884082;29;20032;-76
2022/06/24 09:55:01;;;;;;;2.17;1.40;;;23.40;59.20;;;;;;4884423;29;20084;-75
2022/06/24 09:57:28;;;;;;;1.98;1.50;;;23.40;59.20;;;;;;4884352;29;20056;-75
2022/06/24 10:02:39;;;;;;;2.13;1.45;;;23.50;59.20;;;;;;4915390;29;20438;-77
2022/06/24 10:05:09;;;;;;;2.40;1.83;;;23.50;59.10;;;;;;4915756;29;20060;-75
2022/06/24 10:07:36;;;;;;;1.60;1.50;;;23.50;59.20;;;;;;4899747;29;20034;-76
2022/06/24 10:10:06;;;;;;;2.05;1.60;;;23.60;59.20;;;;;;4899553;29;20028;-75
2022/06/24 10:12:38;;;;;;;1.70;1.60;;;23.60;59.20;;;;;;4900116;29;20088;-76
2022/06/24 10:15:05;;;;;;;1.63;1.52;;;23.60;59.20;;;;;;4900183;29;20040;-75
2022/06/24 10:17:33;;;;;;;2.72;1.67;;;23.60;59.20;;;;;;4883902;29;20052;-75
2022/06/24 10:20:01;;;;;;;1.88;1.70;;;23.60;59.10;;;;;;4899744;29;20456;-75
2022/06/24 10:22:45;;;;;;;2.45;1.70;;;23.70;59.20;;;;;;4916404;29;20054;-76
2022/06/24 10:25:15;;;;;;;1.60;1.42;;;23.70;59.30;;;;;;4916775;29;20076;-76
2022/06/24 10:27:59;;;;;;;1.70;1.55;;;23.70;59.10;;;;;;4916353;29;20499;-75
2022/06/24 10:30:54;;;;;;;2.17;1.77;;;23.70;59.20;;;;;;4915081;29;20149;-76
2022/06/24 10:33:23;;;;;;;2.33;1.73;;;23.80;59.20;;;;;;4910446;29;20067;-75
2022/06/24 10:36:04;;;;;;;2.05;1.70;;;23.80;59.00;;;;;;4916246;29;20035;-76
2022/06/24 10:38:43;;;;;;;2.20;1.80;;;23.80;59.20;;;;;;4899326;29;20071;-76
2022/06/24 10:41:13;;;;;;;2.00;1.80;;;23.80;59.20;;;;;;4915008;29;20074;-76
2022/06/24 10:43:43;;;;;;;2.50;1.75;;;23.90;59.10;;;;;;4916512;29;20039;-76
2022/06/24 10:46:12;;;;;;;2.00;1.77;;;23.90;59.10;;;;;;4899732;29;20517;-76
2022/06/24 10:48:59;;;;;;;2.58;1.98;;;24.00;59.10;;;;;;4899397;29;20111;-76
2022/06/24 10:51:28;;;;;;;3.08;1.92;;;24.00;59.20;;;;;;4915898;29;20059;-77
2022/06/24 10:54:03;;;;;;;2.10;1.90;;;24.00;59.70;;;;;;4898297;29;20032;-76
2022/06/24 10:56:49;;;;;;;2.20;1.92;;;24.10;59.20;;;;;;4900064;29;20031;-76
2022/06/24 10:59:19;;;;;;;2.10;1.90;;;24.10;59.20;;;;;;4916392;29;20115;-77
2022/06/24 11:01:50;;;;;;;2.20;1.90;;;24.20;59.10;;;;;;4916662;29;20032;-77
2022/06/24 11:04:29;;;;;;;1.73;1.63;;;24.20;59.10;;;;;;4869103;29;20386;-76
2022/06/24 11:07:13;;;;;;;2.58;1.90;;;24.20;59.10;;;;;;4884089;29;20043;-75
2022/06/24 11:09:39;;;;;;;2.00;1.80;;;24.30;59.10;;;;;;4883641;29;20051;-76
2022/06/24 11:12:26;;;;;;;2.38;1.73;;;24.30;59.00;;;;;;4916440;29;20390;-75
2022/06/24 11:14:52;;;;;;;2.47;1.90;;;24.40;59.10;;;;;;4889693;29;20469;-76
2022/06/24 11:17:23;;;;;;;2.28;2.00;;;24.50;59.00;;;;;;4902687;29;20056;-75
2022/06/24 11:19:49;;;;;;;2.55;1.90;;;24.50;59.00;;;;;;4919156;29;20056;-76
2022/06/24 11:22:15;;;;;;;2.22;1.90;;;24.60;59.00;;;;;;4886763;29;20102;-75
2022/06/24 11:24:44;;;;;;;2.42;1.80;;;24.60;58.90;;;;;;4919193;29;20059;-75
2022/06/24 11:27:10;;;;;;;2.28;1.90;;;24.70;58.90;;;;;;4887735;29;20533;-75
2022/06/24 11:29:49;;;;;;;2.70;1.85;;;24.70;58.80;;;;;;4919599;29;20067;-76
2022/06/24 11:32:14;;;;;;;2.70;2.00;;;24.80;58.90;;;;;;4902498;29;20047;-75
2022/06/24 11:34:43;;;;;;;2.08;1.65;;;24.80;58.70;;;;;;4918447;29;20036;-76
2022/06/24 11:37:09;;;;;;;2.08;1.77;;;24.90;58.70;;;;;;4918018;29;20036;-77
2022/06/24 11:39:35;;;;;;;2.08;1.80;;;24.90;58.60;;;;;;4902559;29;20036;-75
2022/06/24 11:42:00;;;;;;;2.42;2.00;;;25.00;58.60;;;;;;4902009;29;20036;-75
2022/06/24 11:44:37;;;;;;;2.08;1.80;;;25.00;58.60;;;;;;4871057;29;20039;-76
2022/06/24 11:47:05;;;;;;;2.33;1.70;;;25.10;58.70;;;;;;4902052;29;20043;-74
2022/06/24 11:49:32;;;;;;;2.10;1.80;;;25.20;58.60;;;;;;4901929;29;20473;-75
2022/06/24 11:51:59;;;;;;;1.70;1.50;;;25.20;58.50;;;;;;4886796;29;20040;-76
2022/06/24 11:54:27;;;;;;;2.20;1.83;;;25.30;58.50;;;;;;4901583;29;20025;-76
2022/06/24 11:56:53;;;;;;;2.00;1.65;;;25.30;58.40;;;;;;4919556;29;20028;-76
2022/06/24 11:59:23;;;;;;;2.42;1.80;;;25.40;58.40;;;;;;4917982;29;20163;-75
2022/06/24 12:01:50;;;;;;;2.17;1.98;;;25.40;58.30;;;;;;4870661;29;20405;-76
2022/06/24 12:04:18;;;;;;;2.10;1.90;;;25.40;58.20;;;;;;4919004;29;20097;-76
2022/06/24 12:06:45;;;;;;;2.97;1.60;;;25.50;58.10;;;;;;4918327;29;20028;-75
2022/06/24 12:09:11;;;;;;;2.28;2.08;;;25.50;58.10;;;;;;4901952;29;20024;-76
2022/06/24 12:11:38;;;;;;;2.20;2.00;;;25.50;58.00;;;;;;4917714;29;20040;-76
2022/06/24 12:14:09;;;;;;;3.42;2.00;;;25.60;58.00;;;;;;4918392;29;20028;-76
2022/06/24 12:16:57;;;;;;;2.28;1.73;;;25.60;58.00;;;;;;4885881;29;20056;-77
2022/06/24 12:19:28;;;;;;;2.40;1.98;;;25.60;58.00;;;;;;4918618;29;20096;-75
2022/06/24 12:22:04;;;;;;;2.08;1.70;;;25.60;57.80;;;;;;4918392;29;20043;-76
2022/06/24 12:24:30;;;;;;;2.33;1.90;;;25.60;57.90;;;;;;4900522;29;20044;-76
2022/06/24 12:26:57;;;;;;;3.15;1.85;;;25.70;57.90;;;;;;4885949;29;20075;-78
2022/06/24 12:29:36;;;;;;;2.28;2.05;;;25.70;57.90;;;;;;4918014;29;20074;-77
2022/06/24 12:32:04;;;;;;;4.15;2.20;;;25.60;57.80;;;;;;4887743;29;20147;-79
2022/06/24 12:34:33;;;;;;;3.67;2.35;;;25.70;57.90;;;;;;4886348;29;20028;-78
2022/06/24 12:37:02;;;;;;;2.60;1.98;;;25.70;57.90;;;;;;4885870;29;20098;-76
2022/06/24 12:39:32;;;;;;;2.35;1.90;;;25.70;58.40;;;;;;4918620;29;20028;-77
2022/06/24 12:41:58;;;;;;;1.95;1.75;;;25.60;58.80;;;;;;4901201;29;20032;-77
2022/06/24 12:44:48;;;;;;;2.38;1.83;;;25.60;59.30;;;;;;4917860;29;20032;-76
2022/06/24 12:53:01;;;;;;;2.88;1.85;;;25.60;60.20;;;;;;4916456;29;20040;-76
2022/06/24 12:55:29;;;;;;;1.80;1.67;;;25.60;60.40;;;;;;4901362;29;20060;-76
2022/06/24 12:57:54;;;;;;;2.17;1.95;;;25.60;60.80;;;;;;4885196;29;20502;-77
2022/06/24 13:00:21;;;;;;;2.30;2.03;;;25.60;60.90;;;;;;4884950;29;20043;-77
2022/06/24 13:02:49;;;;;;;2.22;2.03;;;25.60;61.10;;;;;;4900468;29;20473;-76
2022/06/24 13:05:19;;;;;;;2.17;1.98;;;25.60;61.30;;;;;;4900573;29;20020;-76
2022/06/24 13:07:46;;;;;;;4.18;2.50;;;25.60;61.40;;;;;;4900772;29;20028;-76